Time;durP1;ratioP1;P1;durP2;ratioP2;P2;SDS_P1;SDS_P2;PMS_P1;PMS_P2;Temp;Humidity;BMP_temperature;BMP_pressure;BME280_temperature;BME280_humidity;BME280_pressure;Samples;Min_cycle;Max_cycle;Signal;HPM_P1;HPM_P2
2021/11/03 00:07:13;;;;;;;5.32;2.55;;;6.20;99.90;;;;;;20604098;28;20033;-43
2021/11/03 00:17:14;;;;;;;6.80;2.95;;;6.20;99.90;;;;;;20550124;28;20054;-43
2021/11/03 00:27:15;;;;;;;6.50;3.03;;;6.30;99.90;;;;;;20553630;28;20057;-43
2021/11/03 00:37:16;;;;;;;5.80;2.42;;;6.30;99.90;;;;;;20548777;28;20131;-43
2021/11/03 00:47:17;;;;;;;6.60;2.80;;;6.30;99.90;;;;;;20547887;28;20549;-43
2021/11/03 00:57:19;;;;;;;6.35;3.20;;;6.10;99.90;;;;;;20566742;28;20230;-43
2021/11/03 01:07:20;;;;;;;6.80;3.47;;;6.00;99.90;;;;;;20576919;28;20043;-43
2021/11/03 01:17:22;;;;;;;8.05;3.17;;;6.00;99.90;;;;;;20545697;28;20084;-43
2021/11/03 01:27:23;;;;;;;13.95;4.80;;;6.00;99.90;;;;;;20510831;28;20077;-43
2021/11/03 01:37:24;;;;;;;6.93;3.00;;;5.80;99.90;;;;;;20530964;28;20057;-43
2021/11/03 01:47:54;;;;;;;7.97;3.33;;;5.80;99.90;;;;;;20533410;28;20055;-43
2021/11/03 01:58:07;;;;;;;8.45;3.83;;;5.90;99.90;;;;;;20519629;28;20053;-43
2021/11/03 02:08:10;;;;;;;9.80;4.65;;;6.00;99.90;;;;;;20557737;28;20043;-43
2021/11/03 02:18:14;;;;;;;8.88;4.18;;;6.10;99.90;;;;;;20547945;28;20055;-43
2021/11/03 02:28:17;;;;;;;12.30;3.58;;;6.20;99.90;;;;;;20533357;28;20050;-44
2021/11/03 02:38:28;;;;;;;9.70;4.07;;;6.20;99.90;;;;;;20539363;28;20062;-43
2021/11/03 02:48:32;;;;;;;10.63;4.13;;;6.10;99.90;;;;;;20525303;28;20054;-43
2021/11/03 02:58:34;;;;;;;10.73;4.07;;;6.00;99.90;;;;;;20531740;28;20042;-43
2021/11/03 03:08:36;;;;;;;9.85;3.97;;;5.90;99.90;;;;;;20546870;28;20481;-43
2021/11/03 03:18:38;;;;;;;8.25;3.97;;;5.80;99.90;;;;;;20555810;28;20067;-43
2021/11/03 03:28:40;;;;;;;5.95;3.03;;;5.60;99.90;;;;;;20547686;28;20050;-43
2021/11/03 03:38:43;;;;;;;8.35;2.75;;;5.40;99.90;;;;;;20548238;28;20106;-43
2021/11/03 03:48:45;;;;;;;7.25;2.90;;;5.40;99.90;;;;;;20572925;28;20505;-43
2021/11/03 03:58:48;;;;;;;6.93;3.20;;;5.20;99.90;;;;;;20538828;28;20050;-43
2021/11/03 04:08:50;;;;;;;8.07;3.08;;;5.00;99.90;;;;;;20549058;28;20449;-43
2021/11/03 04:18:51;;;;;;;8.57;3.45;;;4.80;99.90;;;;;;20539354;28;20374;-43
2021/11/03 04:28:52;;;;;;;8.95;3.35;;;5.00;99.90;;;;;;20545781;28;20412;-43
2021/11/03 04:38:56;;;;;;;7.75;3.90;;;5.10;99.90;;;;;;20533147;28;20054;-43
2021/11/03 04:48:57;;;;;;;7.38;3.45;;;4.90;99.90;;;;;;20551218;28;20065;-43
2021/11/03 04:58:58;;;;;;;7.10;3.22;;;4.70;99.90;;;;;;20563685;28;20049;-43
2021/11/03 05:09:00;;;;;;;8.90;3.45;;;4.60;99.90;;;;;;20573796;28;20047;-43
2021/11/03 05:19:02;;;;;;;9.35;3.20;;;4.50;99.90;;;;;;20520013;28;20062;-43
2021/11/03 05:29:03;;;;;;;8.00;3.72;;;4.70;99.90;;;;;;20538482;28;20608;-43
2021/11/03 05:39:11;;;;;;;10.90;4.03;;;4.70;99.90;;;;;;20531501;28;20050;-43
2021/11/03 05:49:14;;;;;;;10.10;4.25;;;4.80;99.90;;;;;;20537105;28;20073;-43
2021/11/03 05:59:16;;;;;;;10.23;4.28;;;4.80;99.90;;;;;;20534948;28;20034;-43
2021/11/03 06:09:17;;;;;;;8.35;3.30;;;4.90;99.90;;;;;;20521881;28;20050;-43
2021/11/03 06:19:18;;;;;;;13.23;3.63;;;4.90;99.90;;;;;;20527256;28;20053;-43
2021/11/03 06:29:20;;;;;;;12.00;4.55;;;4.90;99.90;;;;;;20535938;28;20069;-43
2021/11/03 06:39:22;;;;;;;6.00;3.25;;;4.80;99.90;;;;;;20558462;28;20058;-43
2021/11/03 06:49:25;;;;;;;10.35;4.60;;;4.90;99.90;;;;;;20531206;28;20117;-43
2021/11/03 06:59:26;;;;;;;11.13;4.80;;;4.80;99.90;;;;;;20538320;28;20054;-43
2021/11/03 07:09:27;;;;;;;15.13;5.10;;;4.70;99.90;;;;;;20530994;28;20034;-43
2021/11/03 07:19:28;;;;;;;9.95;3.78;;;4.70;99.90;;;;;;20530160;28;20067;-43
2021/11/03 07:29:29;;;;;;;10.80;4.53;;;4.70;99.90;;;;;;20521218;28;20045;-43
2021/11/03 07:39:31;;;;;;;10.20;4.05;;;4.80;99.90;;;;;;20544256;28;20066;-43
2021/11/03 07:49:32;;;;;;;8.48;3.20;;;4.90;99.90;;;;;;20547035;28;20025;-43
2021/11/03 07:59:33;;;;;;;11.05;3.92;;;4.90;99.90;;;;;;20550643;28;20043;-43
2021/11/03 08:09:35;;;;;;;8.50;3.55;;;4.80;99.90;;;;;;20551414;28;20100;-43
2021/11/03 08:19:40;;;;;;;8.10;3.50;;;4.80;99.90;;;;;;20563445;28;20051;-43
2021/11/03 08:29:41;;;;;;;7.00;3.22;;;4.90;99.90;;;;;;20534778;28;20038;-43
2021/11/03 08:39:46;;;;;;;6.20;2.75;;;4.80;99.90;;;;;;20539606;28;20042;-43
2021/11/03 08:49:48;;;;;;;14.98;4.00;;;4.90;99.90;;;;;;20525172;28;20500;-43
2021/11/03 08:59:50;;;;;;;6.70;3.53;;;5.10;99.90;;;;;;20552485;28;20039;-43
2021/11/03 09:09:51;;;;;;;9.20;4.38;;;5.30;99.90;;;;;;20534164;28;20050;-43
2021/11/03 09:19:55;;;;;;;11.07;4.50;;;5.50;99.90;;;;;;20543858;28;20098;-43
2021/11/03 09:29:56;;;;;;;16.55;5.97;;;5.80;99.90;;;;;;20544536;28;20396;-43
2021/11/03 09:39:57;;;;;;;13.18;5.25;;;6.30;99.90;;;;;;20534298;28;20066;-44
2021/11/03 09:50:06;;;;;;;20.88;8.18;;;6.50;99.90;;;;;;20572336;28;20685;-43
2021/11/03 10:00:19;;;;;;;23.92;7.97;;;6.80;99.90;;;;;;20569368;28;20051;-43
2021/11/03 10:10:39;;;;;;;21.45;9.02;;;7.30;99.90;;;;;;20551198;28;20424;-43
2021/11/03 10:20:45;;;;;;;24.60;8.15;;;7.80;99.90;;;;;;20537766;28;20072;-44
2021/11/03 10:30:51;;;;;;;20.03;9.37;;;8.00;99.90;;;;;;20569351;28;20034;-43
2021/11/03 10:41:05;;;;;;;15.88;8.57;;;8.30;99.90;;;;;;20548440;28;20061;-43
2021/11/03 10:51:15;;;;;;;20.85;8.88;;;8.70;99.90;;;;;;20542045;28;20047;-43
2021/11/03 11:01:22;;;;;;;20.45;7.93;;;8.90;99.90;;;;;;20538779;28;20042;-43
2021/11/03 11:11:26;;;;;;;19.23;8.57;;;9.10;99.90;;;;;;20548069;28;20042;-43
2021/11/03 11:21:39;;;;;;;17.10;8.10;;;9.80;99.90;;;;;;20572110;28;20595;-43
2021/11/03 11:31:51;;;;;;;19.30;10.40;;;9.60;99.90;;;;;;20547410;28;20210;-44
2021/11/03 11:42:20;;;;;;;20.23;7.80;;;9.00;99.90;;;;;;20561569;28;20061;-43
2021/11/03 11:52:25;;;;;;;15.23;7.05;;;8.80;99.90;;;;;;20560230;28;20054;-44
2021/11/03 12:02:33;;;;;;;16.73;7.50;;;8.80;99.90;;;;;;20570505;28;20043;-43
2021/11/03 12:13:16;;;;;;;19.77;8.27;;;8.80;99.90;;;;;;20578538;28;20484;-43
2021/11/03 12:23:51;;;;;;;18.63;7.72;;;8.90;99.90;;;;;;20553895;28;20038;-43
2021/11/03 12:34:24;;;;;;;15.82;7.45;;;9.20;99.90;;;;;;20547022;28;20048;-44
2021/11/03 12:44:30;;;;;;;19.02;8.98;;;9.40;99.90;;;;;;20532391;28;20420;-44
2021/11/03 12:54:33;;;;;;;17.08;7.63;;;9.90;99.90;;;;;;20557134;28;20384;-44
2021/11/03 13:04:37;;;;;;;15.43;8.32;;;10.40;99.90;;;;;;20542129;28;20043;-44
2021/11/03 13:14:39;;;;;;;19.25;7.93;;;11.10;99.90;;;;;;20541577;28;20674;-44
2021/11/03 13:24:40;;;;;;;16.38;7.93;;;11.20;99.90;;;;;;20549308;28;20046;-44
2021/11/03 13:34:49;;;;;;;14.45;6.88;;;11.30;99.90;;;;;;20556731;28;20076;-44
2021/11/03 13:45:18;;;;;;;18.20;7.05;;;11.00;99.90;;;;;;20574942;28;20050;-44
2021/11/03 13:55:29;;;;;;;15.25;6.20;;;10.70;99.90;;;;;;20548050;28;20043;-44
2021/11/03 14:05:39;;;;;;;18.53;7.13;;;10.50;99.90;;;;;;20554758;28;20503;-44
2021/11/03 14:15:40;;;;;;;13.55;6.70;;;10.30;99.90;;;;;;20527383;28;21203;-44
2021/11/03 14:25:42;;;;;;;18.83;6.90;;;10.10;99.90;;;;;;20538567;28;20290;-44
2021/11/03 14:35:43;;;;;;;17.98;8.30;;;9.70;99.90;;;;;;20549759;28;20461;-44
2021/11/03 14:45:45;;;;;;;23.85;7.25;;;9.60;99.90;;;;;;20527771;28;20485;-44
2021/11/03 14:55:49;;;;;;;16.30;6.63;;;9.50;99.90;;;;;;20545587;28;20112;-44
2021/11/03 15:05:53;;;;;;;14.40;7.35;;;9.50;99.90;;;;;;20558919;28;20064;-44
2021/11/03 15:15:58;;;;;;;12.40;5.53;;;9.50;99.90;;;;;;20557384;28;20069;-44
2021/11/03 15:26:01;;;;;;;10.90;4.70;;;9.40;99.90;;;;;;20538764;28;20042;-44
2021/11/03 15:36:04;;;;;;;15.63;7.07;;;9.20;99.90;;;;;;20574080;28;20047;-44
2021/11/03 15:46:19;;;;;;;15.88;6.20;;;9.20;99.90;;;;;;20575273;28;20105;-43
2021/11/03 15:56:20;;;;;;;15.30;7.50;;;9.00;99.90;;;;;;20538006;28;20035;-44
2021/11/03 16:06:22;;;;;;;12.25;5.45;;;8.80;99.90;;;;;;20558073;28;21777;-44
2021/11/03 16:16:24;;;;;;;10.15;5.82;;;8.70;99.90;;;;;;20561357;28;20054;-44
2021/11/03 16:26:26;;;;;;;12.45;5.63;;;8.50;99.90;;;;;;20551737;28;20134;-44
2021/11/03 16:36:27;;;;;;;15.52;5.88;;;8.40;99.90;;;;;;20546638;28;20622;-44
2021/11/03 16:46:30;;;;;;;13.68;6.43;;;8.10;99.90;;;;;;20555537;28;20054;-44
2021/11/03 16:56:32;;;;;;;16.90;6.63;;;8.00;99.90;;;;;;20557763;28;20065;-44
2021/11/03 17:06:41;;;;;;;18.00;8.00;;;8.00;99.90;;;;;;20543302;28;20038;-44
2021/11/03 17:16:44;;;;;;;20.20;8.18;;;7.90;99.90;;;;;;20536731;28;20046;-44
2021/11/03 17:26:46;;;;;;;15.98;7.53;;;7.90;99.90;;;;;;20544540;28;20129;-44
2021/11/03 17:36:47;;;;;;;20.35;7.55;;;8.00;99.90;;;;;;20546972;28;20731;-44
2021/11/03 17:46:49;;;;;;;21.45;7.50;;;8.10;99.90;;;;;;20585143;28;20894;-44
2021/11/03 17:56:52;;;;;;;18.17;7.63;;;8.10;99.90;;;;;;20552639;28;20054;-44
2021/11/03 18:06:54;;;;;;;15.15;6.85;;;8.10;99.90;;;;;;20539605;28;20038;-44
2021/11/03 18:16:56;;;;;;;23.77;8.25;;;8.10;99.90;;;;;;20520774;28;20049;-44
2021/11/03 18:27:00;;;;;;;17.58;6.50;;;8.10;99.90;;;;;;20537499;28;20042;-44
2021/11/03 18:37:01;;;;;;;18.00;7.35;;;8.00;99.90;;;;;;20529289;28;20039;-44
2021/11/03 18:47:05;;;;;;;19.50;7.45;;;8.00;99.90;;;;;;20533078;28;20065;-44
2021/11/03 18:57:07;;;;;;;16.00;6.40;;;7.90;99.90;;;;;;20537944;28;20046;-44
2021/11/03 19:07:11;;;;;;;11.73;4.82;;;7.90;99.90;;;;;;20555098;28;20586;-44
2021/11/03 19:17:12;;;;;;;13.50;5.35;;;7.80;99.90;;;;;;20539076;28;20042;-44
2021/11/03 19:27:13;;;;;;;11.73;4.10;;;7.60;99.90;;;;;;20554496;28;20038;-43
2021/11/03 19:37:29;;;;;;;10.85;5.50;;;7.50;99.90;;;;;;20529171;28;20066;-43
2021/11/03 19:47:30;;;;;;;12.88;4.82;;;7.40;99.90;;;;;;20542196;28;20030;-44
2021/11/03 19:57:33;;;;;;;10.70;4.38;;;7.30;99.90;;;;;;20543472;28;20077;-44
2021/11/03 20:07:41;;;;;;;9.25;3.92;;;7.20;99.90;;;;;;20559724;28;20030;-44
2021/11/03 20:17:44;;;;;;;9.43;3.88;;;7.10;99.90;;;;;;20558840;28;20049;-44
2021/11/03 20:27:46;;;;;;;14.70;6.32;;;7.20;99.90;;;;;;20545456;28;20043;-44
2021/11/03 20:37:47;;;;;;;13.75;4.97;;;7.20;99.90;;;;;;20558424;28;20412;-44
2021/11/03 20:47:52;;;;;;;12.30;4.15;;;7.10;99.90;;;;;;20581265;28;20050;-44
2021/11/03 20:57:54;;;;;;;14.55;5.18;;;7.00;99.90;;;;;;20545240;28;20050;-43
2021/11/03 21:07:55;;;;;;;8.70;3.28;;;7.00;99.90;;;;;;20566863;28;20416;-44
2021/11/03 21:17:58;;;;;;;10.57;3.85;;;6.90;99.90;;;;;;20551165;28;20646;-43
2021/11/03 21:28:00;;;;;;;9.75;3.63;;;6.80;99.90;;;;;;20543540;28;20062;-43
2021/11/03 21:38:03;;;;;;;8.80;3.53;;;6.80;99.90;;;;;;20547826;28;20046;-43
2021/11/03 21:48:05;;;;;;;9.93;3.83;;;6.80;99.90;;;;;;20537053;28;20039;-43
2021/11/03 21:58:07;;;;;;;8.80;4.00;;;6.80;99.90;;;;;;20539899;28;20050;-44
2021/11/03 22:08:09;;;;;;;10.32;4.15;;;6.80;99.90;;;;;;20537221;28;20035;-43
2021/11/03 22:18:10;;;;;;;12.25;3.85;;;6.80;99.90;;;;;;20577281;28;20137;-44
2021/11/03 22:28:11;;;;;;;8.32;3.45;;;6.80;99.90;;;;;;20543990;28;20037;-43
2021/11/03 22:38:13;;;;;;;7.15;3.45;;;6.90;99.90;;;;;;20526791;28;20053;-44
2021/11/03 22:48:14;;;;;;;10.40;4.80;;;6.90;99.90;;;;;;20544475;28;20049;-43
2021/11/03 22:58:16;;;;;;;7.75;3.17;;;6.60;99.90;;;;;;20513029;28;20073;-44
2021/11/03 23:08:19;;;;;;;9.68;3.45;;;6.60;99.90;;;;;;20532315;28;20039;-43
2021/11/03 23:18:21;;;;;;;9.45;3.40;;;6.50;99.90;;;;;;20559662;28;20999;-44
2021/11/03 23:28:22;;;;;;;6.22;3.15;;;6.50;99.90;;;;;;20539131;28;20058;-43
2021/11/03 23:38:24;;;;;;;6.32;3.33;;;6.50;99.90;;;;;;20560829;28;20543;-44
2021/11/03 23:48:25;;;;;;;7.05;2.75;;;6.50;99.90;;;;;;20573496;28;20452;-44
2021/11/03 23:58:26;;;;;;;6.93;2.67;;;6.50;99.90;;;;;;20555052;28;20043;-43
